sensor_id;sensor_type;location;lat;lon;timestamp;P1;durP1;ratioP1;P2;durP2;ratioP2
15990;SDS011;8100;50.994;4.538;2023-06-22T00:02:15;6.25;;;3.03;;
15990;SDS011;8100;50.994;4.538;2023-06-22T00:05:02;4.00;;;3.03;;
15990;SDS011;8100;50.994;4.538;2023-06-22T00:07:50;5.95;;;3.58;;
15990;SDS011;8100;50.994;4.538;2023-06-22T00:10:37;5.47;;;3.10;;
15990;SDS011;8100;50.994;4.538;2023-06-22T00:13:26;8.02;;;3.30;;
15990;SDS011;8100;50.994;4.538;2023-06-22T00:16:13;3.80;;;2.90;;
15990;SDS011;8100;50.994;4.538;2023-06-22T00:19:00;4.85;;;3.35;;
15990;SDS011;8100;50.994;4.538;2023-06-22T00:21:49;4.57;;;3.30;;
15990;SDS011;8100;50.994;4.538;2023-06-22T00:24:38;4.53;;;3.25;;
15990;SDS011;8100;50.994;4.538;2023-06-22T00:27:25;4.97;;;3.20;;
15990;SDS011;8100;50.994;4.538;2023-06-22T00:30:14;6.18;;;2.85;;
15990;SDS011;8100;50.994;4.538;2023-06-22T00:33:02;6.22;;;3.38;;
15990;SDS011;8100;50.994;4.538;2023-06-22T00:35:53;3.72;;;3.22;;
15990;SDS011;8100;50.994;4.538;2023-06-22T00:38:40;5.95;;;3.08;;
15990;SDS011;8100;50.994;4.538;2023-06-22T00:41:27;3.40;;;2.80;;
15990;SDS011;8100;50.994;4.538;2023-06-22T00:44:15;5.28;;;3.00;;
15990;SDS011;8100;50.994;4.538;2023-06-22T00:47:03;3.75;;;2.78;;
15990;SDS011;8100;50.994;4.538;2023-06-22T00:49:52;5.45;;;2.85;;
15990;SDS011;8100;50.994;4.538;2023-06-22T00:52:40;4.07;;;2.90;;
15990;SDS011;8100;50.994;4.538;2023-06-22T00:55:29;4.47;;;2.90;;
15990;SDS011;8100;50.994;4.538;2023-06-22T00:58:17;5.30;;;3.00;;
15990;SDS011;8100;50.994;4.538;2023-06-22T01:01:07;4.97;;;3.10;;
15990;SDS011;8100;50.994;4.538;2023-06-22T01:03:55;3.58;;;2.72;;
15990;SDS011;8100;50.994;4.538;2023-06-22T01:06:45;5.30;;;2.90;;
15990;SDS011;8100;50.994;4.538;2023-06-22T01:09:52;5.13;;;2.60;;
15990;SDS011;8100;50.994;4.538;2023-06-22T01:12:44;4.60;;;2.80;;
15990;SDS011;8100;50.994;4.538;2023-06-22T01:15:36;3.47;;;2.90;;
15990;SDS011;8100;50.994;4.538;2023-06-22T01:18:28;4.97;;;2.95;;
15990;SDS011;8100;50.994;4.538;2023-06-22T01:21:20;5.57;;;3.00;;
15990;SDS011;8100;50.994;4.538;2023-06-22T01:24:11;3.42;;;2.70;;
15990;SDS011;8100;50.994;4.538;2023-06-22T01:27:09;5.30;;;3.08;;
15990;SDS011;8100;50.994;4.538;2023-06-22T01:30:09;5.28;;;2.90;;
15990;SDS011;8100;50.994;4.538;2023-06-22T01:32:58;3.97;;;2.78;;
15990;SDS011;8100;50.994;4.538;2023-06-22T01:35:47;4.22;;;2.85;;
15990;SDS011;8100;50.994;4.538;2023-06-22T01:38:34;5.25;;;3.00;;
15990;SDS011;8100;50.994;4.538;2023-06-22T01:41:24;5.15;;;2.97;;
15990;SDS011;8100;50.994;4.538;2023-06-22T01:44:12;3.70;;;2.78;;
15990;SDS011;8100;50.994;4.538;2023-06-22T01:47:01;4.18;;;2.90;;
15990;SDS011;8100;50.994;4.538;2023-06-22T01:49:49;4.35;;;2.85;;
15990;SDS011;8100;50.994;4.538;2023-06-22T01:52:37;3.75;;;2.67;;
15990;SDS011;8100;50.994;4.538;2023-06-22T01:55:24;3.95;;;2.58;;
15990;SDS011;8100;50.994;4.538;2023-06-22T01:58:11;5.32;;;2.95;;
15990;SDS011;8100;50.994;4.538;2023-06-22T02:01:00;4.03;;;3.03;;
15990;SDS011;8100;50.994;4.538;2023-06-22T02:04:01;4.57;;;3.20;;
15990;SDS011;8100;50.994;4.538;2023-06-22T02:06:54;4.15;;;2.70;;
15990;SDS011;8100;50.994;4.538;2023-06-22T02:09:44;3.92;;;3.00;;
15990;SDS011;8100;50.994;4.538;2023-06-22T02:12:33;5.28;;;2.90;;
15990;SDS011;8100;50.994;4.538;2023-06-22T02:15:22;5.10;;;2.78;;
15990;SDS011;8100;50.994;4.538;2023-06-22T02:18:10;3.58;;;2.70;;
15990;SDS011;8100;50.994;4.538;2023-06-22T02:20:59;5.05;;;2.72;;
15990;SDS011;8100;50.994;4.538;2023-06-22T02:23:46;4.18;;;2.88;;
15990;SDS011;8100;50.994;4.538;2023-06-22T02:26:33;3.90;;;2.60;;
15990;SDS011;8100;50.994;4.538;2023-06-22T02:29:21;3.53;;;2.55;;
15990;SDS011;8100;50.994;4.538;2023-06-22T02:32:09;4.15;;;2.85;;
15990;SDS011;8100;50.994;4.538;2023-06-22T02:34:56;4.53;;;2.83;;
15990;SDS011;8100;50.994;4.538;2023-06-22T02:37:45;4.75;;;2.67;;
15990;SDS011;8100;50.994;4.538;2023-06-22T02:40:32;4.57;;;2.65;;
15990;SDS011;8100;50.994;4.538;2023-06-22T02:43:19;4.53;;;2.90;;
15990;SDS011;8100;50.994;4.538;2023-06-22T02:46:06;4.25;;;2.90;;
15990;SDS011;8100;50.994;4.538;2023-06-22T02:48:54;5.35;;;3.03;;
15990;SDS011;8100;50.994;4.538;2023-06-22T02:51:42;4.68;;;3.58;;
15990;SDS011;8100;50.994;4.538;2023-06-22T02:54:33;4.47;;;3.42;;
15990;SDS011;8100;50.994;4.538;2023-06-22T02:57:20;6.88;;;3.60;;
15990;SDS011;8100;50.994;4.538;2023-06-22T03:00:08;5.20;;;3.13;;
15990;SDS011;8100;50.994;4.538;2023-06-22T03:03:02;4.28;;;3.25;;
15990;SDS011;8100;50.994;4.538;2023-06-22T03:05:49;4.18;;;3.08;;
15990;SDS011;8100;50.994;4.538;2023-06-22T03:08:38;4.05;;;2.78;;
15990;SDS011;8100;50.994;4.538;2023-06-22T03:11:28;5.65;;;3.30;;
15990;SDS011;8100;50.994;4.538;2023-06-22T03:14:15;5.28;;;3.42;;
15990;SDS011;8100;50.994;4.538;2023-06-22T03:17:03;5.85;;;3.80;;
15990;SDS011;8100;50.994;4.538;2023-06-22T03:19:51;4.22;;;3.05;;
15990;SDS011;8100;50.994;4.538;2023-06-22T03:22:39;4.65;;;3.30;;
15990;SDS011;8100;50.994;4.538;2023-06-22T03:25:27;4.72;;;3.00;;
15990;SDS011;8100;50.994;4.538;2023-06-22T03:28:15;5.97;;;3.45;;
15990;SDS011;8100;50.994;4.538;2023-06-22T03:31:03;4.00;;;2.92;;
15990;SDS011;8100;50.994;4.538;2023-06-22T03:33:52;4.82;;;3.58;;
15990;SDS011;8100;50.994;4.538;2023-06-22T03:36:40;6.45;;;3.75;;
15990;SDS011;8100;50.994;4.538;2023-06-22T03:39:31;6.55;;;3.58;;
15990;SDS011;8100;50.994;4.538;2023-06-22T03:42:18;7.63;;;3.78;;
15990;SDS011;8100;50.994;4.538;2023-06-22T03:45:07;5.35;;;3.90;;
15990;SDS011;8100;50.994;4.538;2023-06-22T03:47:55;5.95;;;3.72;;
15990;SDS011;8100;50.994;4.538;2023-06-22T03:50:43;6.55;;;4.38;;
15990;SDS011;8100;50.994;4.538;2023-06-22T03:53:30;9.23;;;4.40;;
15990;SDS011;8100;50.994;4.538;2023-06-22T03:56:17;8.18;;;4.80;;
15990;SDS011;8100;50.994;4.538;2023-06-22T03:59:06;8.85;;;4.93;;
15990;SDS011;8100;50.994;4.538;2023-06-22T04:01:54;8.32;;;4.75;;
15990;SDS011;8100;50.994;4.538;2023-06-22T04:04:42;7.32;;;4.95;;
15990;SDS011;8100;50.994;4.538;2023-06-22T04:07:29;7.05;;;4.47;;
15990;SDS011;8100;50.994;4.538;2023-06-22T04:10:16;6.68;;;4.70;;
15990;SDS011;8100;50.994;4.538;2023-06-22T04:13:03;8.60;;;5.05;;
15990;SDS011;8100;50.994;4.538;2023-06-22T04:15:51;9.30;;;4.97;;
15990;SDS011;8100;50.994;4.538;2023-06-22T04:18:39;7.82;;;4.80;;
15990;SDS011;8100;50.994;4.538;2023-06-22T04:21:27;7.70;;;5.47;;
15990;SDS011;8100;50.994;4.538;2023-06-22T04:24:14;7.57;;;5.40;;
15990;SDS011;8100;50.994;4.538;2023-06-22T04:27:01;7.70;;;5.18;;
15990;SDS011;8100;50.994;4.538;2023-06-22T04:29:49;8.85;;;5.50;;
15990;SDS011;8100;50.994;4.538;2023-06-22T04:32:36;9.25;;;5.70;;
15990;SDS011;8100;50.994;4.538;2023-06-22T04:35:26;7.55;;;5.45;;
15990;SDS011;8100;50.994;4.538;2023-06-22T04:38:13;8.60;;;5.57;;
15990;SDS011;8100;50.994;4.538;2023-06-22T04:41:01;8.10;;;5.75;;
15990;SDS011;8100;50.994;4.538;2023-06-22T04:43:48;8.15;;;5.72;;
15990;SDS011;8100;50.994;4.538;2023-06-22T04:46:39;8.93;;;5.70;;
15990;SDS011;8100;50.994;4.538;2023-06-22T04:49:27;7.95;;;5.68;;
15990;SDS011;8100;50.994;4.538;2023-06-22T04:52:19;7.60;;;5.60;;
15990;SDS011;8100;50.994;4.538;2023-06-22T04:55:07;7.97;;;5.80;;
15990;SDS011;8100;50.994;4.538;2023-06-22T04:57:54;10.82;;;6.18;;
15990;SDS011;8100;50.994;4.538;2023-06-22T05:00:41;9.43;;;6.28;;
15990;SDS011;8100;50.994;4.538;2023-06-22T05:03:30;9.57;;;6.28;;
15990;SDS011;8100;50.994;4.538;2023-06-22T05:06:17;12.27;;;6.88;;
15990;SDS011;8100;50.994;4.538;2023-06-22T05:09:06;9.93;;;6.60;;
15990;SDS011;8100;50.994;4.538;2023-06-22T05:11:53;9.40;;;6.53;;
15990;SDS011;8100;50.994;4.538;2023-06-22T05:14:41;11.23;;;7.03;;
15990;SDS011;8100;50.994;4.538;2023-06-22T05:17:29;11.18;;;7.22;;
15990;SDS011;8100;50.994;4.538;2023-06-22T05:20:16;11.65;;;7.00;;
15990;SDS011;8100;50.994;4.538;2023-06-22T05:23:03;9.60;;;6.75;;
15990;SDS011;8100;50.994;4.538;2023-06-22T05:25:52;9.85;;;7.43;;
15990;SDS011;8100;50.994;4.538;2023-06-22T05:28:40;9.25;;;6.53;;
15990;SDS011;8100;50.994;4.538;2023-06-22T05:31:31;8.88;;;6.68;;
15990;SDS011;8100;50.994;4.538;2023-06-22T05:34:18;11.88;;;7.93;;
15990;SDS011;8100;50.994;4.538;2023-06-22T05:37:05;10.18;;;7.40;;
15990;SDS011;8100;50.994;4.538;2023-06-22T05:39:54;9.50;;;7.10;;
15990;SDS011;8100;50.994;4.538;2023-06-22T05:42:44;10.68;;;7.47;;
15990;SDS011;8100;50.994;4.538;2023-06-22T05:45:31;9.82;;;7.10;;
15990;SDS011;8100;50.994;4.538;2023-06-22T05:48:18;11.38;;;8.05;;
15990;SDS011;8100;50.994;4.538;2023-06-22T05:51:05;12.45;;;8.15;;
15990;SDS011;8100;50.994;4.538;2023-06-22T05:53:53;10.25;;;7.25;;
15990;SDS011;8100;50.994;4.538;2023-06-22T05:56:40;10.43;;;7.30;;
15990;SDS011;8100;50.994;4.538;2023-06-22T05:59:28;10.65;;;7.63;;
15990;SDS011;8100;50.994;4.538;2023-06-22T06:02:16;12.32;;;7.95;;
15990;SDS011;8100;50.994;4.538;2023-06-22T06:05:03;10.85;;;7.38;;
15990;SDS011;8100;50.994;4.538;2023-06-22T06:07:51;11.23;;;7.57;;
15990;SDS011;8100;50.994;4.538;2023-06-22T06:10:38;12.38;;;7.43;;
15990;SDS011;8100;50.994;4.538;2023-06-22T06:13:25;14.45;;;7.72;;
15990;SDS011;8100;50.994;4.538;2023-06-22T06:16:14;11.73;;;8.10;;
15990;SDS011;8100;50.994;4.538;2023-06-22T06:19:01;10.40;;;7.50;;
15990;SDS011;8100;50.994;4.538;2023-06-22T06:21:49;11.38;;;7.88;;
15990;SDS011;8100;50.994;4.538;2023-06-22T06:24:36;12.88;;;8.77;;
15990;SDS011;8100;50.994;4.538;2023-06-22T06:27:23;11.48;;;7.95;;
15990;SDS011;8100;50.994;4.538;2023-06-22T06:30:14;10.13;;;7.22;;
15990;SDS011;8100;50.994;4.538;2023-06-22T06:33:04;11.68;;;8.07;;
15990;SDS011;8100;50.994;4.538;2023-06-22T06:35:54;11.23;;;7.78;;
15990;SDS011;8100;50.994;4.538;2023-06-22T06:38:41;12.27;;;8.30;;
15990;SDS011;8100;50.994;4.538;2023-06-22T06:41:28;13.32;;;8.52;;
15990;SDS011;8100;50.994;4.538;2023-06-22T06:44:16;11.50;;;7.43;;
15990;SDS011;8100;50.994;4.538;2023-06-22T06:47:03;11.65;;;8.40;;
15990;SDS011;8100;50.994;4.538;2023-06-22T06:49:52;15.02;;;9.43;;
15990;SDS011;8100;50.994;4.538;2023-06-22T06:52:39;11.95;;;8.32;;
15990;SDS011;8100;50.994;4.538;2023-06-22T06:55:27;13.32;;;9.15;;
15990;SDS011;8100;50.994;4.538;2023-06-22T06:58:18;12.52;;;8.48;;
15990;SDS011;8100;50.994;4.538;2023-06-22T07:01:05;14.80;;;9.68;;
15990;SDS011;8100;50.994;4.538;2023-06-22T07:03:52;13.57;;;8.45;;
15990;SDS011;8100;50.994;4.538;2023-06-22T07:06:41;14.65;;;9.98;;
15990;SDS011;8100;50.994;4.538;2023-06-22T07:09:28;14.70;;;9.70;;
15990;SDS011;8100;50.994;4.538;2023-06-22T07:12:15;13.95;;;8.65;;
15990;SDS011;8100;50.994;4.538;2023-06-22T07:15:03;12.68;;;8.90;;
15990;SDS011;8100;50.994;4.538;2023-06-22T07:17:53;13.30;;;9.52;;
15990;SDS011;8100;50.994;4.538;2023-06-22T07:20:40;13.70;;;9.85;;
15990;SDS011;8100;50.994;4.538;2023-06-22T07:23:29;14.02;;;10.15;;
15990;SDS011;8100;50.994;4.538;2023-06-22T07:26:16;16.15;;;11.02;;
15990;SDS011;8100;50.994;4.538;2023-06-22T07:29:03;13.98;;;9.85;;
15990;SDS011;8100;50.994;4.538;2023-06-22T07:31:51;12.82;;;9.80;;
15990;SDS011;8100;50.994;4.538;2023-06-22T07:34:38;12.77;;;9.50;;
15990;SDS011;8100;50.994;4.538;2023-06-22T07:37:25;13.48;;;8.90;;
15990;SDS011;8100;50.994;4.538;2023-06-22T07:40:15;13.23;;;9.25;;
15990;SDS011;8100;50.994;4.538;2023-06-22T07:43:03;14.93;;;10.10;;
15990;SDS011;8100;50.994;4.538;2023-06-22T07:45:50;11.05;;;8.20;;
15990;SDS011;8100;50.994;4.538;2023-06-22T07:48:38;14.02;;;10.85;;
15990;SDS011;8100;50.994;4.538;2023-06-22T07:51:27;13.07;;;9.63;;
15990;SDS011;8100;50.994;4.538;2023-06-22T07:54:14;15.05;;;10.85;;
15990;SDS011;8100;50.994;4.538;2023-06-22T07:57:04;13.93;;;10.77;;
15990;SDS011;8100;50.994;4.538;2023-06-22T07:59:52;12.25;;;9.38;;
15990;SDS011;8100;50.994;4.538;2023-06-22T08:02:39;13.55;;;9.60;;
15990;SDS011;8100;50.994;4.538;2023-06-22T08:05:26;13.88;;;9.98;;
15990;SDS011;8100;50.994;4.538;2023-06-22T08:08:15;13.15;;;9.82;;
15990;SDS011;8100;50.994;4.538;2023-06-22T08:11:02;12.90;;;9.82;;
15990;SDS011;8100;50.994;4.538;2023-06-22T08:13:51;14.05;;;9.32;;
15990;SDS011;8100;50.994;4.538;2023-06-22T08:16:38;12.50;;;8.90;;
15990;SDS011;8100;50.994;4.538;2023-06-22T08:19:26;12.48;;;8.85;;
15990;SDS011;8100;50.994;4.538;2023-06-22T08:22:13;11.50;;;9.15;;
15990;SDS011;8100;50.994;4.538;2023-06-22T08:25:00;14.40;;;9.15;;
15990;SDS011;8100;50.994;4.538;2023-06-22T08:27:48;10.75;;;8.68;;
15990;SDS011;8100;50.994;4.538;2023-06-22T08:30:37;14.82;;;10.00;;
15990;SDS011;8100;50.994;4.538;2023-06-22T08:33:24;14.40;;;9.75;;
15990;SDS011;8100;50.994;4.538;2023-06-22T08:36:13;13.70;;;9.50;;
15990;SDS011;8100;50.994;4.538;2023-06-22T08:39:01;13.25;;;9.48;;
15990;SDS011;8100;50.994;4.538;2023-06-22T08:41:48;11.73;;;9.10;;
15990;SDS011;8100;50.994;4.538;2023-06-22T08:44:36;11.70;;;8.07;;
15990;SDS011;8100;50.994;4.538;2023-06-22T08:47:24;11.07;;;8.07;;
15990;SDS011;8100;50.994;4.538;2023-06-22T08:50:12;11.27;;;8.05;;
15990;SDS011;8100;50.994;4.538;2023-06-22T08:52:59;9.02;;;6.55;;
15990;SDS011;8100;50.994;4.538;2023-06-22T08:55:46;9.98;;;7.57;;
15990;SDS011;8100;50.994;4.538;2023-06-22T08:58:36;10.02;;;7.72;;
15990;SDS011;8100;50.994;4.538;2023-06-22T09:01:23;9.32;;;7.15;;
15990;SDS011;8100;50.994;4.538;2023-06-22T09:04:12;13.13;;;7.45;;
15990;SDS011;8100;50.994;4.538;2023-06-22T09:06:59;10.93;;;7.47;;
15990;SDS011;8100;50.994;4.538;2023-06-22T09:09:46;9.55;;;7.53;;
15990;SDS011;8100;50.994;4.538;2023-06-22T09:12:34;8.90;;;6.90;;
15990;SDS011;8100;50.994;4.538;2023-06-22T09:15:23;10.15;;;7.63;;
15990;SDS011;8100;50.994;4.538;2023-06-22T09:18:10;8.82;;;7.00;;
15990;SDS011;8100;50.994;4.538;2023-06-22T09:20:59;10.32;;;7.10;;
15990;SDS011;8100;50.994;4.538;2023-06-22T09:23:47;11.18;;;7.00;;
15990;SDS011;8100;50.994;4.538;2023-06-22T09:26:36;10.40;;;7.75;;
15990;SDS011;8100;50.994;4.538;2023-06-22T09:29:24;10.90;;;7.13;;
15990;SDS011;8100;50.994;4.538;2023-06-22T09:32:11;10.13;;;7.60;;
15990;SDS011;8100;50.994;4.538;2023-06-22T09:34:58;11.60;;;8.05;;
15990;SDS011;8100;50.994;4.538;2023-06-22T09:37:50;9.77;;;7.03;;
15990;SDS011;8100;50.994;4.538;2023-06-22T09:40:37;10.68;;;7.43;;
15990;SDS011;8100;50.994;4.538;2023-06-22T09:43:25;10.07;;;7.47;;
15990;SDS011;8100;50.994;4.538;2023-06-22T09:46:14;10.07;;;7.70;;
15990;SDS011;8100;50.994;4.538;2023-06-22T09:49:02;12.15;;;7.45;;
15990;SDS011;8100;50.994;4.538;2023-06-22T09:51:49;11.90;;;7.55;;
15990;SDS011;8100;50.994;4.538;2023-06-22T09:54:37;12.20;;;8.30;;
15990;SDS011;8100;50.994;4.538;2023-06-22T09:57:25;13.23;;;9.07;;
15990;SDS011;8100;50.994;4.538;2023-06-22T10:00:13;11.15;;;8.27;;
15990;SDS011;8100;50.994;4.538;2023-06-22T10:03:02;11.63;;;8.10;;
15990;SDS011;8100;50.994;4.538;2023-06-22T10:05:49;10.50;;;8.48;;
15990;SDS011;8100;50.994;4.538;2023-06-22T10:08:36;12.13;;;8.00;;
15990;SDS011;8100;50.994;4.538;2023-06-22T10:11:26;13.13;;;8.82;;
15990;SDS011;8100;50.994;4.538;2023-06-22T10:14:15;12.93;;;8.48;;
15990;SDS011;8100;50.994;4.538;2023-06-22T10:17:03;12.50;;;8.48;;
15990;SDS011;8100;50.994;4.538;2023-06-22T10:19:52;10.40;;;8.32;;
15990;SDS011;8100;50.994;4.538;2023-06-22T10:22:40;14.30;;;9.18;;
15990;SDS011;8100;50.994;4.538;2023-06-22T10:25:27;12.55;;;8.55;;
15990;SDS011;8100;50.994;4.538;2023-06-22T10:28:16;11.70;;;8.50;;
15990;SDS011;8100;50.994;4.538;2023-06-22T10:31:03;12.55;;;8.65;;
15990;SDS011;8100;50.994;4.538;2023-06-22T10:33:50;11.88;;;8.50;;
15990;SDS011;8100;50.994;4.538;2023-06-22T10:36:39;11.88;;;8.40;;
15990;SDS011;8100;50.994;4.538;2023-06-22T10:39:26;12.30;;;9.00;;
15990;SDS011;8100;50.994;4.538;2023-06-22T10:42:13;12.20;;;9.30;;
15990;SDS011;8100;50.994;4.538;2023-06-22T10:45:02;14.63;;;9.60;;
15990;SDS011;8100;50.994;4.538;2023-06-22T10:47:50;11.27;;;9.15;;
15990;SDS011;8100;50.994;4.538;2023-06-22T10:50:37;14.45;;;10.23;;
15990;SDS011;8100;50.994;4.538;2023-06-22T10:53:24;14.20;;;9.50;;
15990;SDS011;8100;50.994;4.538;2023-06-22T10:56:11;12.52;;;8.80;;
15990;SDS011;8100;50.994;4.538;2023-06-22T10:58:59;14.23;;;10.63;;
15990;SDS011;8100;50.994;4.538;2023-06-22T11:01:48;13.80;;;10.75;;
15990;SDS011;8100;50.994;4.538;2023-06-22T11:04:35;14.48;;;10.30;;
15990;SDS011;8100;50.994;4.538;2023-06-22T11:07:23;13.35;;;10.65;;
15990;SDS011;8100;50.994;4.538;2023-06-22T11:10:10;15.88;;;11.32;;
15990;SDS011;8100;50.994;4.538;2023-06-22T11:12:57;16.02;;;11.05;;
15990;SDS011;8100;50.994;4.538;2023-06-22T11:15:44;12.25;;;10.48;;
15990;SDS011;8100;50.994;4.538;2023-06-22T11:18:33;14.65;;;10.13;;
15990;SDS011;8100;50.994;4.538;2023-06-22T11:21:20;14.63;;;10.90;;
15990;SDS011;8100;50.994;4.538;2023-06-22T11:24:07;13.02;;;10.20;;
15990;SDS011;8100;50.994;4.538;2023-06-22T11:26:55;13.60;;;10.82;;
15990;SDS011;8100;50.994;4.538;2023-06-22T11:29:42;14.40;;;10.00;;
15990;SDS011;8100;50.994;4.538;2023-06-22T11:32:29;14.75;;;10.38;;
15990;SDS011;8100;50.994;4.538;2023-06-22T11:35:18;15.13;;;9.60;;
15990;SDS011;8100;50.994;4.538;2023-06-22T11:38:05;14.20;;;10.68;;
15990;SDS011;8100;50.994;4.538;2023-06-22T11:40:53;13.95;;;10.23;;
15990;SDS011;8100;50.994;4.538;2023-06-22T11:43:40;12.32;;;9.32;;
15990;SDS011;8100;50.994;4.538;2023-06-22T11:46:27;13.23;;;9.88;;
15990;SDS011;8100;50.994;4.538;2023-06-22T11:49:14;10.70;;;8.90;;
15990;SDS011;8100;50.994;4.538;2023-06-22T11:52:03;15.57;;;10.55;;
15990;SDS011;8100;50.994;4.538;2023-06-22T11:54:51;14.35;;;10.45;;
15990;SDS011;8100;50.994;4.538;2023-06-22T11:57:38;14.52;;;9.45;;
15990;SDS011;8100;50.994;4.538;2023-06-22T12:00:40;14.30;;;10.02;;
15990;SDS011;8100;50.994;4.538;2023-06-22T12:03:27;11.55;;;8.75;;
15990;SDS011;8100;50.994;4.538;2023-06-22T12:06:15;11.95;;;9.55;;
15990;SDS011;8100;50.994;4.538;2023-06-22T12:09:04;11.48;;;9.40;;
15990;SDS011;8100;50.994;4.538;2023-06-22T12:11:51;13.25;;;10.52;;
15990;SDS011;8100;50.994;4.538;2023-06-22T12:14:38;12.75;;;10.15;;
15990;SDS011;8100;50.994;4.538;2023-06-22T12:17:25;13.57;;;10.95;;
15990;SDS011;8100;50.994;4.538;2023-06-22T12:20:13;15.30;;;11.07;;
15990;SDS011;8100;50.994;4.538;2023-06-22T12:23:01;15.57;;;11.38;;
15990;SDS011;8100;50.994;4.538;2023-06-22T12:25:49;14.65;;;10.25;;
15990;SDS011;8100;50.994;4.538;2023-06-22T12:28:36;14.52;;;10.98;;
15990;SDS011;8100;50.994;4.538;2023-06-22T12:31:24;14.63;;;11.63;;
15990;SDS011;8100;50.994;4.538;2023-06-22T12:34:11;14.93;;;11.20;;
15990;SDS011;8100;50.994;4.538;2023-06-22T12:36:58;16.13;;;11.80;;
15990;SDS011;8100;50.994;4.538;2023-06-22T12:39:46;15.13;;;11.98;;
15990;SDS011;8100;50.994;4.538;2023-06-22T12:42:35;16.45;;;12.77;;
15990;SDS011;8100;50.994;4.538;2023-06-22T12:45:22;18.55;;;12.75;;
15990;SDS011;8100;50.994;4.538;2023-06-22T12:48:10;16.30;;;12.95;;
15990;SDS011;8100;50.994;4.538;2023-06-22T12:50:58;17.48;;;12.60;;
15990;SDS011;8100;50.994;4.538;2023-06-22T12:53:45;20.83;;;14.63;;
15990;SDS011;8100;50.994;4.538;2023-06-22T12:56:33;15.13;;;11.48;;
15990;SDS011;8100;50.994;4.538;2023-06-22T12:59:21;17.88;;;12.82;;
15990;SDS011;8100;50.994;4.538;2023-06-22T13:02:09;16.23;;;12.82;;
15990;SDS011;8100;50.994;4.538;2023-06-22T13:04:56;15.50;;;12.52;;
15990;SDS011;8100;50.994;4.538;2023-06-22T13:07:43;18.42;;;12.90;;
15990;SDS011;8100;50.994;4.538;2023-06-22T13:10:31;17.23;;;12.13;;
15990;SDS011;8100;50.994;4.538;2023-06-22T13:13:18;16.05;;;11.80;;
15990;SDS011;8100;50.994;4.538;2023-06-22T13:16:07;15.10;;;11.25;;
15990;SDS011;8100;50.994;4.538;2023-06-22T13:18:54;14.57;;;11.68;;
15990;SDS011;8100;50.994;4.538;2023-06-22T13:21:42;13.85;;;11.65;;
15990;SDS011;8100;50.994;4.538;2023-06-22T13:24:29;14.23;;;11.45;;
15990;SDS011;8100;50.994;4.538;2023-06-22T13:27:17;14.32;;;11.15;;
15990;SDS011;8100;50.994;4.538;2023-06-22T13:30:04;14.70;;;11.13;;
15990;SDS011;8100;50.994;4.538;2023-06-22T13:32:54;14.63;;;11.38;;
15990;SDS011;8100;50.994;4.538;2023-06-22T13:35:41;13.52;;;10.65;;
15990;SDS011;8100;50.994;4.538;2023-06-22T13:38:28;17.13;;;11.38;;
15990;SDS011;8100;50.994;4.538;2023-06-22T13:41:17;14.52;;;10.40;;
15990;SDS011;8100;50.994;4.538;2023-06-22T13:44:05;16.90;;;11.27;;
15990;SDS011;8100;50.994;4.538;2023-06-22T13:46:52;14.10;;;11.23;;
15990;SDS011;8100;50.994;4.538;2023-06-22T13:49:40;15.32;;;11.60;;
15990;SDS011;8100;50.994;4.538;2023-06-22T13:52:28;14.05;;;11.32;;
15990;SDS011;8100;50.994;4.538;2023-06-22T13:55:15;14.27;;;11.48;;
15990;SDS011;8100;50.994;4.538;2023-06-22T13:58:03;15.27;;;11.70;;
15990;SDS011;8100;50.994;4.538;2023-06-22T14:00:50;16.83;;;11.98;;
15990;SDS011;8100;50.994;4.538;2023-06-22T14:03:37;15.75;;;12.35;;
15990;SDS011;8100;50.994;4.538;2023-06-22T14:06:26;16.08;;;12.05;;
15990;SDS011;8100;50.994;4.538;2023-06-22T14:09:13;15.88;;;12.50;;
15990;SDS011;8100;50.994;4.538;2023-06-22T14:12:02;15.65;;;12.30;;
15990;SDS011;8100;50.994;4.538;2023-06-22T14:14:51;14.85;;;11.45;;
15990;SDS011;8100;50.994;4.538;2023-06-22T14:17:38;14.57;;;11.48;;
15990;SDS011;8100;50.994;4.538;2023-06-22T14:20:25;16.27;;;12.40;;
15990;SDS011;8100;50.994;4.538;2023-06-22T14:23:14;17.60;;;12.50;;
15990;SDS011;8100;50.994;4.538;2023-06-22T14:26:01;15.48;;;11.65;;
15990;SDS011;8100;50.994;4.538;2023-06-22T14:28:48;16.92;;;12.57;;
15990;SDS011;8100;50.994;4.538;2023-06-22T14:31:36;16.52;;;12.10;;
15990;SDS011;8100;50.994;4.538;2023-06-22T14:34:24;16.70;;;11.95;;
15990;SDS011;8100;50.994;4.538;2023-06-22T14:37:11;14.32;;;11.57;;
15990;SDS011;8100;50.994;4.538;2023-06-22T14:40:00;16.50;;;13.18;;
15990;SDS011;8100;50.994;4.538;2023-06-22T14:42:47;15.93;;;13.02;;
15990;SDS011;8100;50.994;4.538;2023-06-22T14:45:34;16.63;;;12.57;;
15990;SDS011;8100;50.994;4.538;2023-06-22T14:48:21;16.15;;;12.40;;
15990;SDS011;8100;50.994;4.538;2023-06-22T14:51:09;14.13;;;11.65;;
15990;SDS011;8100;50.994;4.538;2023-06-22T14:53:56;14.75;;;12.02;;
15990;SDS011;8100;50.994;4.538;2023-06-22T14:56:45;14.90;;;11.82;;
15990;SDS011;8100;50.994;4.538;2023-06-22T14:59:32;15.40;;;12.10;;
15990;SDS011;8100;50.994;4.538;2023-06-22T15:02:19;16.92;;;12.18;;
15990;SDS011;8100;50.994;4.538;2023-06-22T15:05:07;17.90;;;12.85;;
15990;SDS011;8100;50.994;4.538;2023-06-22T15:07:54;17.05;;;13.13;;
15990;SDS011;8100;50.994;4.538;2023-06-22T15:10:42;16.30;;;12.65;;
15990;SDS011;8100;50.994;4.538;2023-06-22T15:13:31;18.35;;;13.43;;
15990;SDS011;8100;50.994;4.538;2023-06-22T15:16:19;15.93;;;12.65;;
15990;SDS011;8100;50.994;4.538;2023-06-22T15:19:06;18.17;;;13.70;;
15990;SDS011;8100;50.994;4.538;2023-06-22T15:21:55;17.02;;;12.77;;
15990;SDS011;8100;50.994;4.538;2023-06-22T15:24:42;18.85;;;13.82;;
15990;SDS011;8100;50.994;4.538;2023-06-22T15:27:31;15.88;;;12.63;;
15990;SDS011;8100;50.994;4.538;2023-06-22T15:30:19;18.75;;;13.88;;
15990;SDS011;8100;50.994;4.538;2023-06-22T15:33:07;19.05;;;13.15;;
15990;SDS011;8100;50.994;4.538;2023-06-22T15:35:54;19.10;;;13.88;;
15990;SDS011;8100;50.994;4.538;2023-06-22T15:38:41;17.70;;;13.57;;
15990;SDS011;8100;50.994;4.538;2023-06-22T15:41:28;17.88;;;13.93;;
15990;SDS011;8100;50.994;4.538;2023-06-22T15:44:16;17.63;;;13.80;;
15990;SDS011;8100;50.994;4.538;2023-06-22T15:47:04;19.48;;;13.77;;
15990;SDS011;8100;50.994;4.538;2023-06-22T15:49:52;19.25;;;14.50;;
15990;SDS011;8100;50.994;4.538;2023-06-22T15:52:39;18.88;;;14.73;;
15990;SDS011;8100;50.994;4.538;2023-06-22T15:55:26;18.52;;;14.23;;
15990;SDS011;8100;50.994;4.538;2023-06-22T15:58:16;17.33;;;14.13;;
15990;SDS011;8100;50.994;4.538;2023-06-22T16:01:03;18.38;;;14.23;;
15990;SDS011;8100;50.994;4.538;2023-06-22T16:03:53;16.95;;;13.05;;
15990;SDS011;8100;50.994;4.538;2023-06-22T16:06:40;17.38;;;12.90;;
15990;SDS011;8100;50.994;4.538;2023-06-22T16:09:28;15.70;;;12.32;;
15990;SDS011;8100;50.994;4.538;2023-06-22T16:12:16;18.27;;;13.45;;
15990;SDS011;8100;50.994;4.538;2023-06-22T16:15:04;18.13;;;13.75;;
15990;SDS011;8100;50.994;4.538;2023-06-22T16:17:51;15.98;;;12.88;;
15990;SDS011;8100;50.994;4.538;2023-06-22T16:20:40;18.13;;;13.88;;
15990;SDS011;8100;50.994;4.538;2023-06-22T16:23:27;18.50;;;13.88;;
15990;SDS011;8100;50.994;4.538;2023-06-22T16:26:14;20.15;;;14.68;;
15990;SDS011;8100;50.994;4.538;2023-06-22T16:29:01;19.52;;;14.85;;
15990;SDS011;8100;50.994;4.538;2023-06-22T16:31:49;18.48;;;14.50;;
15990;SDS011;8100;50.994;4.538;2023-06-22T16:34:36;18.73;;;14.55;;
15990;SDS011;8100;50.994;4.538;2023-06-22T16:37:24;20.88;;;15.30;;
15990;SDS011;8100;50.994;4.538;2023-06-22T16:40:12;19.70;;;15.40;;
15990;SDS011;8100;50.994;4.538;2023-06-22T16:43:00;20.95;;;15.73;;
15990;SDS011;8100;50.994;4.538;2023-06-22T16:45:47;20.40;;;14.95;;
15990;SDS011;8100;50.994;4.538;2023-06-22T16:48:35;20.70;;;15.25;;
15990;SDS011;8100;50.994;4.538;2023-06-22T16:51:22;18.58;;;15.32;;
15990;SDS011;8100;50.994;4.538;2023-06-22T16:54:11;21.23;;;16.20;;